createdAt,value
2022-08-09T00:02:26.901Z,50.39
2022-08-09T00:05:03.466Z,50.02
2022-08-09T00:07:44.416Z,50.21
2022-08-09T00:10:21.542Z,49.89
2022-08-09T00:12:52.330Z,49.98
2022-08-09T00:15:26.475Z,49.79
2022-08-09T00:18:10.748Z,50.40
2022-08-09T00:20:42.503Z,50.39
2022-08-09T00:23:57.465Z,50.38
2022-08-09T00:26:05.848Z,50.09
2022-08-09T00:28:34.698Z,50.38
2022-08-09T00:31:09.236Z,50.45
2022-08-09T00:33:51.473Z,50.21
2022-08-09T00:36:22.545Z,50.98
2022-08-09T00:38:55.955Z,50.77
2022-08-09T00:44:16.635Z,51.28
2022-08-09T00:44:25.030Z,51.00
2022-08-09T00:46:57.266Z,51.65
2022-08-09T00:49:32.761Z,52.11
2022-08-09T00:52:05.214Z,51.17
2022-08-09T00:54:36.313Z,50.93
2022-08-09T00:57:08.891Z,51.56
2022-08-09T00:59:46.276Z,51.40
2022-08-09T01:02:24.452Z,51.44
2022-08-09T01:05:13.923Z,51.42
2022-08-09T01:08:00.447Z,51.66
2022-08-09T01:11:08.673Z,52.83
2022-08-09T01:13:59.941Z,53.42
2022-08-09T01:16:35.157Z,54.47
2022-08-09T01:19:17.002Z,55.11
2022-08-09T01:22:17.285Z,55.19
2022-08-09T01:25:16.177Z,55.75
2022-08-09T01:27:50.658Z,55.97
2022-08-09T01:30:33.486Z,56.07
2022-08-09T01:33:03.339Z,55.76
2022-08-09T01:35:45.197Z,56.33
2022-08-09T01:38:18.496Z,55.77
2022-08-09T01:41:05.088Z,56.33
2022-08-09T01:43:41.834Z,56.07
2022-08-09T01:46:24.891Z,55.99
2022-08-09T01:48:59.839Z,57.31
2022-08-09T01:51:39.190Z,56.40
2022-08-09T01:54:10.253Z,58.26
2022-08-09T01:56:40.664Z,57.79
2022-08-09T01:59:10.937Z,58.38
2022-08-09T02:01:59.718Z,58.75
2022-08-09T02:04:28.494Z,58.72
2022-08-09T02:07:18.576Z,57.98
2022-08-09T02:10:07.341Z,58.45
2022-08-09T02:12:35.432Z,57.92
2022-08-09T02:15:06.173Z,58.36
2022-08-09T02:17:59.983Z,58.37
2022-08-09T02:20:26.760Z,59.23
2022-08-09T02:23:16.914Z,58.77
2022-08-09T02:25:49.600Z,59.04
2022-08-09T02:28:39.113Z,58.94
2022-08-09T02:31:08.883Z,59.11
2022-08-09T02:34:06.350Z,59.47
2022-08-09T02:36:32.571Z,59.66
2022-08-09T02:39:04.802Z,59.50
2022-08-09T02:41:50.793Z,59.72
2022-08-09T02:44:29.164Z,59.57
2022-08-09T02:46:58.130Z,59.88
2022-08-09T02:49:27.175Z,59.93
2022-08-09T02:52:07.853Z,60.73
2022-08-09T02:54:36.825Z,60.54
2022-08-09T02:57:23.644Z,60.68
2022-08-09T03:00:21.624Z,60.84
2022-08-09T03:02:58.130Z,60.25
2022-08-09T03:05:26.577Z,61.88
2022-08-09T03:07:55.210Z,61.45
2022-08-09T03:10:24.071Z,61.40
2022-08-09T03:12:52.099Z,61.16
2022-08-09T03:15:20.801Z,61.21
2022-08-09T03:17:57.966Z,61.42
2022-08-09T03:20:29.622Z,62.37
2022-08-09T03:22:58.425Z,62.23
2022-08-09T03:25:58.397Z,61.63
2022-08-09T03:28:30.945Z,62.48
2022-08-09T03:30:58.850Z,62.05
2022-08-09T03:33:26.698Z,62.49
2022-08-09T03:36:16.813Z,62.70
2022-08-09T03:38:44.654Z,62.98
2022-08-09T03:41:15.050Z,62.86
2022-08-09T03:44:04.019Z,62.46
2022-08-09T03:46:30.357Z,62.62
2022-08-09T03:48:59.767Z,62.38
2022-08-09T03:51:43.625Z,62.06
2022-08-09T03:54:19.387Z,61.27
2022-08-09T03:56:59.308Z,62.49
2022-08-09T03:59:27.423Z,62.73
2022-08-09T04:02:10.340Z,62.01
2022-08-09T04:04:38.802Z,61.55
2022-08-09T04:07:05.836Z,62.28
2022-08-09T04:09:47.693Z,62.19
2022-08-09T04:12:30.842Z,62.44
2022-08-09T04:15:02.042Z,62.38
2022-08-09T04:17:38.242Z,62.79
2022-08-09T04:20:07.215Z,62.85
2022-08-09T04:22:34.529Z,63.16
2022-08-09T04:25:04.670Z,63.49
2022-08-09T04:27:32.691Z,64.03
2022-08-09T04:29:59.594Z,62.79
2022-08-09T04:32:31.586Z,62.99
2022-08-09T04:35:01.110Z,63.58
2022-08-09T04:37:45.846Z,64.16
2022-08-09T04:40:19.283Z,63.86
2022-08-09T04:42:55.734Z,64.42
2022-08-09T04:45:23.555Z,64.26
2022-08-09T04:47:58.767Z,64.04
2022-08-09T04:50:31.967Z,63.60
2022-08-09T04:53:02.052Z,63.12
2022-08-09T04:55:39.054Z,63.68
2022-08-09T04:58:09.563Z,63.28
2022-08-09T05:00:37.127Z,64.13
2022-08-09T05:03:30.141Z,63.80
2022-08-09T05:06:06.767Z,64.19
2022-08-09T05:08:34.952Z,63.93
2022-08-09T05:11:02.345Z,63.56
2022-08-09T05:13:29.254Z,63.51
2022-08-09T05:15:59.953Z,63.34
2022-08-09T05:18:42.926Z,63.15
2022-08-09T05:21:24.328Z,63.27
2022-08-09T05:24:00.384Z,63.08
2022-08-09T05:26:36.020Z,61.98
2022-08-09T05:29:04.166Z,62.76
2022-08-09T05:31:44.364Z,62.92
2022-08-09T05:34:16.646Z,62.70
2022-08-09T05:36:44.260Z,62.53
2022-08-09T05:39:28.194Z,61.56
2022-08-09T05:41:55.952Z,61.58
2022-08-09T05:44:29.074Z,60.63
2022-08-09T05:46:59.895Z,60.37
2022-08-09T05:50:23.872Z,59.56
2022-08-09T05:52:12.927Z,58.13
2022-08-09T05:54:39.875Z,57.48
2022-08-09T05:57:07.704Z,56.35
2022-08-09T05:59:39.446Z,54.99
2022-08-09T06:02:09.143Z,54.25
2022-08-09T06:04:36.717Z,53.35
2022-08-09T06:07:04.182Z,53.17
2022-08-09T06:09:54.590Z,52.46
2022-08-09T06:12:17.200Z,51.95
2022-08-09T06:14:43.665Z,51.26
2022-08-09T06:17:10.194Z,49.21
2022-08-09T06:19:36.929Z,49.58
2022-08-09T06:22:03.685Z,49.07
2022-08-09T06:24:30.122Z,48.29
2022-08-09T06:26:58.086Z,47.48
2022-08-09T06:29:26.839Z,47.63
2022-08-09T06:32:08.715Z,48.43
2022-08-09T06:34:40.443Z,46.72
2022-08-09T06:37:10.024Z,44.42
2022-08-09T06:39:48.181Z,44.43
2022-08-09T06:42:24.929Z,44.36
2022-08-09T06:44:55.378Z,43.17
2022-08-09T06:47:24.324Z,42.23
2022-08-09T06:50:11.455Z,41.62
2022-08-09T06:52:47.050Z,41.21
2022-08-09T06:55:17.008Z,41.38
2022-08-09T06:58:02.755Z,39.60
2022-08-09T07:00:57.091Z,39.54
2022-08-09T07:03:16.427Z,38.19
2022-08-09T07:06:02.350Z,37.21
2022-08-09T07:08:30.673Z,35.61
2022-08-09T07:10:57.204Z,35.96
2022-08-09T07:13:29.558Z,35.93
2022-08-09T07:16:42.430Z,35.71
2022-08-09T07:18:44.087Z,34.60
2022-08-09T07:21:14.220Z,36.42
2022-08-09T07:23:46.597Z,35.67
2022-08-09T07:26:23.305Z,35.38
2022-08-09T07:29:01.371Z,35.74
2022-08-09T07:31:38.417Z,33.64
2022-08-09T07:34:19.306Z,31.93
2022-08-09T07:36:47.816Z,31.81
2022-08-09T07:39:20.101Z,31.16
2022-08-09T07:42:00.802Z,31.28
2022-08-09T07:44:50.831Z,31.99
2022-08-09T07:47:17.857Z,32.25
2022-08-09T07:50:04.485Z,31.24
2022-08-09T07:52:31.227Z,30.56
2022-08-09T07:54:57.896Z,29.98
2022-08-09T07:57:35.674Z,30.56
2022-08-09T08:00:04.543Z,30.19
2022-08-09T08:02:36.039Z,30.06
2022-08-09T08:05:17.908Z,30.01
2022-08-09T08:08:43.864Z,27.80
2022-08-09T08:10:34.467Z,28.44
2022-08-09T08:13:01.567Z,27.71
2022-08-09T08:15:37.699Z,27.60
2022-08-09T08:18:05.821Z,27.55
2022-08-09T08:20:33.497Z,26.24
2022-08-09T08:23:16.128Z,26.59
2022-08-09T08:25:46.429Z,27.51
2022-08-09T08:28:18.268Z,28.79
2022-08-09T08:30:59.077Z,28.38
2022-08-09T08:33:25.596Z,27.84
2022-08-09T08:36:07.641Z,26.40
2022-08-09T08:38:35.013Z,24.55
2022-08-09T08:41:06.203Z,25.73
2022-08-09T08:43:34.916Z,26.78
2022-08-09T08:46:32.642Z,26.89
2022-08-09T08:48:53.973Z,25.54
2022-08-09T08:51:22.965Z,26.28
2022-08-09T08:54:02.964Z,27.45
2022-08-09T08:56:37.641Z,26.32
2022-08-09T08:59:20.172Z,26.90
2022-08-09T09:01:53.455Z,25.30
2022-08-09T09:04:29.783Z,25.44
2022-08-09T09:07:02.755Z,24.53
2022-08-09T09:09:57.792Z,22.94
2022-08-09T09:12:22.731Z,24.94
2022-08-09T09:14:50.154Z,25.42
2022-08-09T09:17:18.701Z,26.38
2022-08-09T09:19:47.589Z,26.93
2022-08-09T09:22:17.560Z,26.43
2022-08-09T09:26:02.450Z,26.22
2022-08-09T09:28:03.542Z,25.77
2022-08-09T09:30:47.433Z,25.93
2022-08-09T09:33:16.379Z,25.20
2022-08-09T09:36:01.744Z,23.34
2022-08-09T09:38:44.628Z,22.06
2022-08-09T09:41:23.379Z,22.59
2022-08-09T09:44:12.055Z,22.18
2022-08-09T09:46:42.864Z,22.76
2022-08-09T09:49:18.549Z,20.74
2022-08-09T09:52:06.817Z,19.88
2022-08-09T09:55:01.006Z,19.78
2022-08-09T09:58:03.080Z,21.06
2022-08-09T10:00:26.440Z,19.56
2022-08-09T10:02:53.509Z,20.68
2022-08-09T10:05:27.070Z,20.28
2022-08-09T10:08:26.012Z,18.89
2022-08-09T10:10:54.063Z,18.38
2022-08-09T10:13:24.738Z,18.89
2022-08-09T10:16:58.313Z,16.41
2022-08-09T10:18:56.818Z,17.62
2022-08-09T10:21:27.628Z,14.27
2022-08-09T10:23:56.996Z,13.71
2022-08-09T10:26:26.798Z,13.50
2022-08-09T10:29:22.647Z,12.08
2022-08-09T10:32:27.909Z,11.64
2022-08-09T10:34:33.925Z,11.11
2022-08-09T10:37:02.444Z,10.79
2022-08-09T10:39:29.945Z,11.19
2022-08-09T10:42:08.480Z,12.04
2022-08-09T10:44:39.826Z,13.07
2022-08-09T10:48:17.211Z,13.24
2022-08-09T10:50:31.109Z,12.98
2022-08-09T10:53:19.164Z,12.27
2022-08-09T10:55:58.235Z,13.76
2022-08-09T10:58:35.035Z,13.38
2022-08-09T11:03:02.816Z,12.32
2022-08-09T11:04:27.755Z,13.03
2022-08-09T11:07:00.319Z,13.61
2022-08-09T11:09:41.372Z,12.97
2022-08-09T11:12:17.486Z,12.95
2022-08-09T11:14:47.270Z,13.22
2022-08-09T11:17:13.844Z,13.23
2022-08-09T11:20:22.092Z,12.01
2022-08-09T11:22:55.365Z,11.94
2022-08-09T11:25:45.177Z,11.56
2022-08-09T11:28:38.917Z,12.31
2022-08-09T11:31:49.830Z,13.17
2022-08-09T11:34:34.927Z,13.04
2022-08-09T11:37:03.685Z,13.21
2022-08-09T11:40:01.051Z,12.69
2022-08-09T11:42:51.496Z,12.67
2022-08-09T11:45:26.356Z,12.48
2022-08-09T11:48:19.301Z,13.22
2022-08-09T11:52:49.501Z,12.67
2022-08-09T11:53:59.727Z,12.61
2022-08-09T11:56:34.316Z,13.35
2022-08-09T11:59:11.937Z,13.44
2022-08-09T12:02:17.103Z,12.44
2022-08-09T12:04:37.546Z,12.25
2022-08-09T12:07:07.756Z,11.98
2022-08-09T12:09:36.041Z,11.44
2022-08-09T12:12:13.136Z,11.94
2022-08-09T12:15:08.356Z,11.45
2022-08-09T12:17:34.627Z,11.86
2022-08-09T12:20:22.149Z,11.38
2022-08-09T12:23:03.215Z,11.49
2022-08-09T12:25:37.363Z,12.69
2022-08-09T12:29:15.304Z,12.54
2022-08-09T12:31:58.143Z,13.15
2022-08-09T12:34:15.697Z,12.52
2022-08-09T12:36:52.793Z,12.32
2022-08-09T12:39:27.055Z,12.64
2022-08-09T12:41:54.638Z,12.75
2022-08-09T12:44:24.555Z,13.16
2022-08-09T12:46:51.454Z,13.27
2022-08-09T12:49:19.010Z,12.85
2022-08-09T12:52:01.084Z,12.48
2022-08-09T12:56:11.061Z,12.90
2022-08-09T12:57:46.455Z,13.37
2022-08-09T13:00:23.442Z,13.05
2022-08-09T13:02:56.070Z,12.54
2022-08-09T13:05:25.276Z,12.59
2022-08-09T13:08:21.311Z,13.37
2022-08-09T13:11:22.699Z,12.74
2022-08-09T13:14:42.653Z,13.05
2022-08-09T13:16:49.479Z,12.14
2022-08-09T13:20:09.378Z,12.29
2022-08-09T13:22:35.666Z,12.09
2022-08-09T13:25:05.151Z,12.29
2022-08-09T13:27:40.063Z,12.33
2022-08-09T13:30:50.372Z,12.30
2022-08-09T13:33:07.010Z,12.21
2022-08-09T13:36:24.640Z,12.44
2022-08-09T13:38:55.805Z,12.82
2022-08-09T13:41:45.905Z,13.31
2022-08-09T13:43:58.186Z,12.67
2022-08-09T13:47:17.987Z,12.37
2022-08-09T13:49:18.359Z,13.17
2022-08-09T13:52:00.562Z,13.65
2022-08-09T13:54:30.376Z,13.63
2022-08-09T13:56:56.916Z,13.49
2022-08-09T13:59:25.420Z,13.97
2022-08-09T14:02:01.672Z,14.43
2022-08-09T14:04:29.391Z,14.46
2022-08-09T14:07:03.513Z,14.00
2022-08-09T14:09:30.585Z,14.77
2022-08-09T14:12:06.193Z,14.34
2022-08-09T14:14:41.894Z,14.17
2022-08-09T14:17:12.571Z,14.72
2022-08-09T14:19:39.184Z,14.57
2022-08-09T14:22:07.276Z,15.44
2022-08-09T14:24:35.697Z,15.64
2022-08-09T14:27:02.389Z,15.81
2022-08-09T14:30:35.287Z,16.23
2022-08-09T14:32:19.705Z,16.11
2022-08-09T14:34:55.925Z,16.27
2022-08-09T14:37:28.556Z,16.53
2022-08-09T14:39:55.341Z,16.38
2022-08-09T14:42:31.781Z,16.40
2022-08-09T14:46:53.993Z,16.82
2022-08-09T14:47:57.937Z,17.04
2022-08-09T14:50:27.937Z,17.03
2022-08-09T14:52:54.579Z,17.37
2022-08-09T14:55:21.441Z,18.05
2022-08-09T14:57:49.354Z,18.79
2022-08-09T15:00:17.061Z,18.29
2022-08-09T15:02:47.573Z,18.49
2022-08-09T15:05:19.597Z,18.41
2022-08-09T15:07:56.345Z,18.59
2022-08-09T15:10:24.757Z,19.28
2022-08-09T15:12:55.755Z,19.53
2022-08-09T15:15:23.554Z,19.18
2022-08-09T15:17:52.887Z,19.35
2022-08-09T15:21:58.255Z,20.04
2022-08-09T15:24:01.275Z,20.05
2022-08-09T15:25:55.629Z,19.51
2022-08-09T15:28:27.306Z,19.87
2022-08-09T15:31:01.839Z,19.71
2022-08-09T15:34:15.436Z,20.33
2022-08-09T15:36:16.633Z,20.78
2022-08-09T15:38:43.079Z,20.64
2022-08-09T15:41:10.273Z,21.14
2022-08-09T15:43:38.972Z,21.08
2022-08-09T15:46:28.256Z,21.13
2022-08-09T15:49:20.431Z,21.61
2022-08-09T15:52:02.164Z,21.63
2022-08-09T15:54:33.438Z,21.91
2022-08-09T15:57:09.398Z,21.82
2022-08-09T15:59:37.113Z,22.03
2022-08-09T16:02:04.073Z,21.99
2022-08-09T16:04:32.104Z,21.94
2022-08-09T16:07:01.700Z,22.16
2022-08-09T16:09:32.499Z,22.22
2022-08-09T16:12:15.726Z,22.05
2022-08-09T16:14:42.721Z,22.19
2022-08-09T16:17:09.432Z,22.39
2022-08-09T16:19:36.880Z,22.74
2022-08-09T16:22:15.727Z,22.76
2022-08-09T16:24:42.480Z,22.59
2022-08-09T16:27:08.910Z,22.58
2022-08-09T16:29:50.707Z,22.74
2022-08-09T16:32:43.296Z,22.82
2022-08-09T16:35:07.275Z,22.81
2022-08-09T16:37:55.765Z,22.87
2022-08-09T16:40:39.931Z,23.16
2022-08-09T16:43:07.355Z,23.01
2022-08-09T16:45:33.816Z,23.58
2022-08-09T16:48:41.798Z,23.24
2022-08-09T16:50:49.923Z,23.70
2022-08-09T16:53:32.177Z,23.35
2022-08-09T16:56:03.647Z,23.17
2022-08-09T16:58:36.109Z,23.83
2022-08-09T17:01:04.593Z,23.74
2022-08-09T17:03:31.383Z,23.98
2022-08-09T17:06:06.911Z,24.19
2022-08-09T17:09:02.932Z,24.23
2022-08-09T17:11:39.946Z,24.51
2022-08-09T17:14:26.165Z,24.38
2022-08-09T17:16:59.454Z,24.84
2022-08-09T17:19:27.044Z,24.92
2022-08-09T17:22:13.373Z,25.10
2022-08-09T17:24:47.517Z,24.79
2022-08-09T17:27:21.249Z,24.88
2022-08-09T17:29:47.695Z,25.21
2022-08-09T17:32:16.430Z,25.22
2022-08-09T17:35:07.639Z,25.45
2022-08-09T17:38:11.896Z,25.17
2022-08-09T17:40:21.627Z,25.11
2022-08-09T17:42:59.316Z,25.22
2022-08-09T17:46:01.774Z,24.92
2022-08-09T17:48:16.933Z,25.71
2022-08-09T17:50:48.748Z,25.68
2022-08-09T17:53:23.312Z,25.17
2022-08-09T17:55:54.102Z,25.16
2022-08-09T17:58:24.272Z,25.44
2022-08-09T18:00:56.264Z,25.43
2022-08-09T18:03:24.417Z,25.49
2022-08-09T18:05:53.060Z,25.90
2022-08-09T18:08:21.796Z,26.10
2022-08-09T18:11:00.912Z,25.87
2022-08-09T18:13:38.791Z,26.29
2022-08-09T18:16:16.973Z,25.83
2022-08-09T18:18:56.768Z,26.58
2022-08-09T18:21:24.413Z,26.60
2022-08-09T18:24:12.681Z,26.64
2022-08-09T18:26:46.649Z,26.67
2022-08-09T18:30:42.269Z,26.98
2022-08-09T18:32:03.633Z,26.99
2022-08-09T18:34:34.864Z,26.61
2022-08-09T18:37:02.970Z,26.71
2022-08-09T18:39:32.088Z,27.03
2022-08-09T18:42:01.115Z,27.41
2022-08-09T18:44:27.791Z,27.17
2022-08-09T18:47:08.048Z,27.24
2022-08-09T18:49:41.479Z,27.65
2022-08-09T18:52:11.687Z,27.98
2022-08-09T18:54:38.964Z,27.59
2022-08-09T18:57:08.772Z,27.76
2022-08-09T18:59:48.463Z,28.07
2022-08-09T19:02:16.992Z,27.85
2022-08-09T19:04:47.913Z,27.79
2022-08-09T19:07:31.567Z,28.20
2022-08-09T19:10:16.920Z,28.33
2022-08-09T19:12:45.655Z,28.47
2022-08-09T19:15:19.839Z,28.35
2022-08-09T19:17:54.833Z,28.28
2022-08-09T19:20:23.286Z,28.61
2022-08-09T19:22:54.275Z,28.95
2022-08-09T19:25:42.425Z,29.04
2022-08-09T19:28:08.874Z,29.28
2022-08-09T19:30:44.594Z,29.39
2022-08-09T19:33:19.060Z,29.53
2022-08-09T19:35:57.138Z,29.55
2022-08-09T19:38:27.152Z,29.86
2022-08-09T19:40:54.179Z,29.79
2022-08-09T19:43:57.903Z,29.91
2022-08-09T19:46:08.625Z,30.28
2022-08-09T19:49:00.443Z,30.48
2022-08-09T19:51:30.641Z,30.49
2022-08-09T19:54:01.225Z,30.81
2022-08-09T19:56:29.427Z,31.00
2022-08-09T19:59:39.548Z,30.97
2022-08-09T20:01:53.079Z,31.43
2022-08-09T20:04:37.331Z,31.33
2022-08-09T20:07:12.400Z,31.21
2022-08-09T20:09:48.862Z,31.55
2022-08-09T20:12:30.186Z,31.80
2022-08-09T20:15:10.318Z,31.55
2022-08-09T20:17:54.604Z,31.77
2022-08-09T20:20:21.502Z,32.00
2022-08-09T20:22:48.665Z,31.97
2022-08-09T20:25:22.551Z,32.70
2022-08-09T20:27:49.436Z,32.91
2022-08-09T20:30:18.081Z,32.66
2022-08-09T20:32:52.262Z,32.66
2022-08-09T20:35:19.742Z,32.96
2022-08-09T20:38:23.902Z,32.89
2022-08-09T20:40:32.793Z,32.80
2022-08-09T20:43:19.012Z,32.91
2022-08-09T20:45:59.383Z,32.99
2022-08-09T20:48:32.764Z,32.92
2022-08-09T20:51:00.974Z,33.15
2022-08-09T20:53:36.480Z,33.40
2022-08-09T20:56:06.445Z,33.22
2022-08-09T20:58:35.706Z,33.01
2022-08-09T21:01:32.521Z,33.19
2022-08-09T21:05:48.407Z,33.37
2022-08-09T21:06:42.591Z,33.95
2022-08-09T21:09:11.621Z,33.51
2022-08-09T21:14:26.832Z,34.12
2022-08-09T21:16:57.748Z,34.58
2022-08-09T21:20:19.264Z,34.84
2022-08-09T21:22:35.970Z,34.91
2022-08-09T21:25:17.712Z,35.58
2022-08-09T21:27:51.043Z,35.45
2022-08-09T21:30:19.274Z,35.73
2022-08-09T21:32:49.347Z,35.79
2022-08-09T21:35:16.551Z,35.61
2022-08-09T21:37:56.936Z,35.80
2022-08-09T21:40:30.577Z,35.76
2022-08-09T21:42:58.752Z,35.36
2022-08-09T21:45:25.774Z,35.43
2022-08-09T21:47:52.805Z,35.18
2022-08-09T21:50:33.881Z,36.06
2022-08-09T21:53:03.945Z,35.38
2022-08-09T21:55:30.882Z,35.52
2022-08-09T21:58:01.938Z,36.05
2022-08-09T22:00:33.574Z,36.05
2022-08-09T22:03:19.173Z,37.20
2022-08-09T22:05:51.800Z,36.43
2022-08-09T22:08:18.746Z,36.95
2022-08-09T22:11:00.539Z,37.23
2022-08-09T22:13:35.991Z,36.60
2022-08-09T22:16:07.571Z,37.17
2022-08-09T22:18:35.946Z,36.54
2022-08-09T22:21:10.001Z,36.65
2022-08-09T22:24:01.309Z,36.42
2022-08-09T22:26:35.341Z,37.08
2022-08-09T22:29:08.859Z,36.87
2022-08-09T22:31:37.371Z,37.25
2022-08-09T22:34:14.566Z,37.40
2022-08-09T22:36:46.254Z,38.43
2022-08-09T22:39:46.814Z,37.58
2022-08-09T22:42:00.726Z,38.85
2022-08-09T22:44:29.963Z,39.25
2022-08-09T22:48:14.554Z,39.60
2022-08-09T22:49:45.997Z,39.83
2022-08-09T22:52:12.501Z,40.29
2022-08-09T22:54:42.181Z,40.15
2022-08-09T22:57:11.920Z,41.15
2022-08-09T22:59:56.251Z,41.81
2022-08-09T23:02:25.102Z,42.19
2022-08-09T23:04:53.701Z,41.92
2022-08-09T23:08:29.308Z,41.79
2022-08-09T23:10:27.014Z,41.32
2022-08-09T23:12:53.502Z,41.75
2022-08-09T23:15:20.107Z,42.29
2022-08-09T23:17:46.553Z,42.56
2022-08-09T23:20:13.220Z,42.86
2022-08-09T23:22:39.898Z,43.20
2022-08-09T23:25:07.069Z,42.89
2022-08-09T23:27:33.743Z,42.83
2022-08-09T23:30:00.392Z,43.49
2022-08-09T23:32:26.844Z,43.29
2022-08-09T23:34:53.356Z,43.51
2022-08-09T23:37:22.704Z,43.22
2022-08-09T23:39:51.920Z,44.10
2022-08-09T23:42:18.419Z,43.84
2022-08-09T23:44:44.978Z,43.31
2022-08-09T23:47:11.471Z,43.99
2022-08-09T23:49:37.904Z,44.14
2022-08-09T23:52:04.862Z,44.64
2022-08-09T23:54:31.336Z,44.62
2022-08-09T23:56:58.604Z,44.93
2022-08-09T23:59:25.594Z,45.21
